sensor_id;sensor_type;location;lat;lon;timestamp;pressure;altitude;pressure_sealevel;temperature;humidity
65614;BME280;52283;49.292;10.572;2023-04-02T00:01:34;95605.84;;;7.41;100.00
65614;BME280;52283;49.292;10.572;2023-04-02T00:04:11;95608.63;;;7.35;100.00
65614;BME280;52283;49.292;10.572;2023-04-02T00:06:39;95613.94;;;7.33;100.00
65614;BME280;52283;49.292;10.572;2023-04-02T00:09:22;95609.13;;;7.33;100.00
65614;BME280;52283;49.292;10.572;2023-04-02T00:11:50;95614.69;;;7.45;100.00
65614;BME280;52283;49.292;10.572;2023-04-02T00:14:23;95617.72;;;7.41;100.00
65614;BME280;52283;49.292;10.572;2023-04-02T00:16:50;95615.44;;;7.45;100.00
65614;BME280;52283;49.292;10.572;2023-04-02T00:19:22;95630.34;;;7.42;100.00
65614;BME280;52283;49.292;10.572;2023-04-02T00:21:50;95618.72;;;7.38;100.00
65614;BME280;52283;49.292;10.572;2023-04-02T00:24:20;95617.47;;;7.39;100.00
65614;BME280;52283;49.292;10.572;2023-04-02T00:26:49;95626.56;;;7.45;100.00
65614;BME280;52283;49.292;10.572;2023-04-02T00:29:17;95617.97;;;7.43;100.00
65614;BME280;52283;49.292;10.572;2023-04-02T00:31:45;95622.53;;;7.41;100.00
65614;BME280;52283;49.292;10.572;2023-04-02T00:34:17;95631.91;;;7.54;100.00
65614;BME280;52283;49.292;10.572;2023-04-02T00:36:45;95637.69;;;7.34;100.00
65614;BME280;52283;49.292;10.572;2023-04-02T00:39:17;95630.56;;;7.27;100.00
65614;BME280;52283;49.292;10.572;2023-04-02T00:41:46;95643.25;;;7.45;100.00
65614;BME280;52283;49.292;10.572;2023-04-02T00:44:13;95629.84;;;7.38;100.00
65614;BME280;52283;49.292;10.572;2023-04-02T00:46:46;95636.97;;;7.50;100.00
65614;BME280;52283;49.292;10.572;2023-04-02T00:49:20;95637.44;;;7.43;100.00
65614;BME280;52283;49.292;10.572;2023-04-02T00:51:51;95636.16;;;7.44;100.00
65614;BME280;52283;49.292;10.572;2023-04-02T00:54:20;95641.22;;;7.40;100.00
65614;BME280;52283;49.292;10.572;2023-04-02T00:56:52;95640.72;;;7.42;100.00
65614;BME280;52283;49.292;10.572;2023-04-02T00:59:25;95630.84;;;7.35;100.00
65614;BME280;52283;49.292;10.572;2023-04-02T01:01:53;95643.25;;;7.40;100.00
65614;BME280;52283;49.292;10.572;2023-04-02T01:04:31;95641.63;;;7.05;100.00
65614;BME280;52283;49.292;10.572;2023-04-02T01:07:01;95644.19;;;7.14;100.00
65614;BME280;52283;49.292;10.572;2023-04-02T01:09:42;95633.06;;;7.09;100.00
65614;BME280;52283;49.292;10.572;2023-04-02T01:12:28;95632.50;;;6.99;100.00
65614;BME280;52283;49.292;10.572;2023-04-02T01:15:07;95634.78;;;7.00;100.00
65614;BME280;52283;49.292;10.572;2023-04-02T01:17:50;95630.72;;;6.96;100.00
65614;BME280;52283;49.292;10.572;2023-04-02T01:20:56;95631.75;;;6.98;100.00
65614;BME280;52283;49.292;10.572;2023-04-02T01:23:29;95633.06;;;7.09;100.00
65614;BME280;52283;49.292;10.572;2023-04-02T01:26:04;95638.38;;;7.12;100.00
65614;BME280;52283;49.292;10.572;2023-04-02T01:28:46;95642.13;;;7.03;100.00
65614;BME280;52283;49.292;10.572;2023-04-02T01:31:16;95649.19;;;7.04;100.00
65614;BME280;52283;49.292;10.572;2023-04-02T01:33:42;95644.44;;;7.11;100.00
65614;BME280;52283;49.292;10.572;2023-04-02T01:36:13;95643.09;;;6.95;100.00
65614;BME280;52283;49.292;10.572;2023-04-02T01:38:47;95649.41;;;6.95;100.00
65614;BME280;52283;49.292;10.572;2023-04-02T01:41:23;95644.63;;;7.01;100.00
65614;BME280;52283;49.292;10.572;2023-04-02T01:43:58;95648.16;;;6.96;100.00
65614;BME280;52283;49.292;10.572;2023-04-02T01:46:30;95649.44;;;7.07;100.00
65614;BME280;52283;49.292;10.572;2023-04-02T01:48:59;95657.31;;;7.08;100.00
65614;BME280;52283;49.292;10.572;2023-04-02T01:51:28;95655.72;;;6.96;100.00
65614;BME280;52283;49.292;10.572;2023-04-02T01:53:57;95662.56;;;7.00;100.00
65614;BME280;52283;49.292;10.572;2023-04-02T01:56:25;95648.38;;;6.87;100.00
65614;BME280;52283;49.292;10.572;2023-04-02T01:58:54;95657.75;;;6.90;100.00
65614;BME280;52283;49.292;10.572;2023-04-02T02:01:23;95650.69;;;6.94;100.00
65614;BME280;52283;49.292;10.572;2023-04-02T02:03:52;95642.78;;;6.82;100.00
65614;BME280;52283;49.292;10.572;2023-04-02T02:06:19;95651.69;;;6.91;100.00
65614;BME280;52283;49.292;10.572;2023-04-02T02:08:48;95651.84;;;6.77;100.00
65614;BME280;52283;49.292;10.572;2023-04-02T02:11:20;95662.75;;;6.86;100.00
65614;BME280;52283;49.292;10.572;2023-04-02T02:13:49;95661.72;;;6.78;100.00
65614;BME280;52283;49.292;10.572;2023-04-02T02:16:18;95650.84;;;6.80;100.00
65614;BME280;52283;49.292;10.572;2023-04-02T02:18:49;95659.19;;;6.80;100.00
65614;BME280;52283;49.292;10.572;2023-04-02T02:21:19;95664.22;;;6.76;100.00
65614;BME280;52283;49.292;10.572;2023-04-02T02:23:48;95668.75;;;6.73;100.00
65614;BME280;52283;49.292;10.572;2023-04-02T02:26:15;95665.47;;;6.75;100.00
65614;BME280;52283;49.292;10.572;2023-04-02T02:28:44;95668.00;;;6.72;100.00
65614;BME280;52283;49.292;10.572;2023-04-02T02:31:20;95663.69;;;6.71;100.00
65614;BME280;52283;49.292;10.572;2023-04-02T02:33:55;95679.59;;;6.71;100.00
65614;BME280;52283;49.292;10.572;2023-04-02T02:36:23;95670.78;;;6.78;100.00
65614;BME280;52283;49.292;10.572;2023-04-02T02:38:54;95674.09;;;6.82;100.00
65614;BME280;52283;49.292;10.572;2023-04-02T02:41:27;95680.91;;;6.81;100.00
65614;BME280;52283;49.292;10.572;2023-04-02T02:44:00;95681.22;;;6.89;100.00
65614;BME280;52283;49.292;10.572;2023-04-02T02:46:30;95681.66;;;6.76;100.00
65614;BME280;52283;49.292;10.572;2023-04-02T02:48:58;95676.38;;;6.84;100.00
65614;BME280;52283;49.292;10.572;2023-04-02T02:51:28;95679.16;;;6.84;100.00
65614;BME280;52283;49.292;10.572;2023-04-02T02:54:04;95679.91;;;6.84;100.00
65614;BME280;52283;49.292;10.572;2023-04-02T02:56:34;95684.69;;;6.78;100.00
65614;BME280;52283;49.292;10.572;2023-04-02T02:59:04;95686.44;;;6.76;100.00
65614;BME280;52283;49.292;10.572;2023-04-02T03:01:34;95686.47;;;6.81;100.00
65614;BME280;52283;49.292;10.572;2023-04-02T03:04:01;95689.50;;;6.83;100.00
65614;BME280;52283;49.292;10.572;2023-04-02T03:06:29;95690.75;;;6.82;100.00
65614;BME280;52283;49.292;10.572;2023-04-02T03:09:01;95695.28;;;6.80;100.00
65614;BME280;52283;49.292;10.572;2023-04-02T03:11:34;95691.34;;;6.97;100.00
65614;BME280;52283;49.292;10.572;2023-04-02T03:14:09;95695.78;;;6.78;100.00
65614;BME280;52283;49.292;10.572;2023-04-02T03:16:42;95699.03;;;6.71;100.00
65614;BME280;52283;49.292;10.572;2023-04-02T03:19:22;95701.94;;;6.99;100.00
65614;BME280;52283;49.292;10.572;2023-04-02T03:21:53;95708.16;;;6.77;100.00
65614;BME280;52283;49.292;10.572;2023-04-02T03:24:28;95706.88;;;6.72;100.00
65614;BME280;52283;49.292;10.572;2023-04-02T03:27:01;95705.13;;;6.75;100.00
65614;BME280;52283;49.292;10.572;2023-04-02T03:29:32;95718.41;;;6.65;100.00
65614;BME280;52283;49.292;10.572;2023-04-02T03:32:04;95719.00;;;6.75;100.00
65614;BME280;52283;49.292;10.572;2023-04-02T03:34:34;95722.78;;;6.72;100.00
65614;BME280;52283;49.292;10.572;2023-04-02T03:37:07;95724.06;;;6.77;100.00
65614;BME280;52283;49.292;10.572;2023-04-02T03:39:38;95733.69;;;6.87;100.00
65614;BME280;52283;49.292;10.572;2023-04-02T03:42:08;95730.38;;;6.83;100.00
65614;BME280;52283;49.292;10.572;2023-04-02T03:44:44;95734.66;;;6.78;100.00
65614;BME280;52283;49.292;10.572;2023-04-02T03:47:16;95736.47;;;6.87;100.00
65614;BME280;52283;49.292;10.572;2023-04-02T03:49:47;95737.72;;;6.86;100.00
65614;BME280;52283;49.292;10.572;2023-04-02T03:52:16;95738.16;;;6.73;100.00
65614;BME280;52283;49.292;10.572;2023-04-02T03:54:45;95731.38;;;6.80;100.00
65614;BME280;52283;49.292;10.572;2023-04-02T03:57:21;95744.03;;;6.86;100.00
65614;BME280;52283;49.292;10.572;2023-04-02T03:59:53;95746.25;;;6.71;100.00
65614;BME280;52283;49.292;10.572;2023-04-02T04:02:34;95755.81;;;6.70;100.00
65614;BME280;52283;49.292;10.572;2023-04-02T04:05:05;95755.88;;;6.81;100.00
65614;BME280;52283;49.292;10.572;2023-04-02T04:07:35;95756.88;;;6.78;100.00
65614;BME280;52283;49.292;10.572;2023-04-02T04:10:05;95767.47;;;6.74;100.00
65614;BME280;52283;49.292;10.572;2023-04-02T04:12:35;95775.59;;;6.83;100.00
65614;BME280;52283;49.292;10.572;2023-04-02T04:15:06;95770.50;;;6.76;100.00
65614;BME280;52283;49.292;10.572;2023-04-02T04:17:45;95778.53;;;6.68;100.00
65614;BME280;52283;49.292;10.572;2023-04-02T04:20:18;95782.38;;;6.77;100.00
65614;BME280;52283;49.292;10.572;2023-04-02T04:22:47;95780.38;;;6.83;100.00
65614;BME280;52283;49.292;10.572;2023-04-02T04:25:20;95777.00;;;6.67;100.00
65614;BME280;52283;49.292;10.572;2023-04-02T04:27:56;95776.25;;;6.67;100.00
65614;BME280;52283;49.292;10.572;2023-04-02T04:30:33;95785.94;;;6.83;100.00
65614;BME280;52283;49.292;10.572;2023-04-02T04:33:14;95791.97;;;6.76;100.00
65614;BME280;52283;49.292;10.572;2023-04-02T04:35:49;95789.41;;;6.72;100.00
65614;BME280;52283;49.292;10.572;2023-04-02T04:38:19;95797.69;;;6.66;100.00
65614;BME280;52283;49.292;10.572;2023-04-02T04:40:54;95798.78;;;6.80;100.00
65614;BME280;52283;49.292;10.572;2023-04-02T04:43:28;95799.00;;;6.71;100.00
65614;BME280;52283;49.292;10.572;2023-04-02T04:46:00;95805.53;;;6.68;100.00
65614;BME280;52283;49.292;10.572;2023-04-02T04:48:34;95805.31;;;6.71;100.00
65614;BME280;52283;49.292;10.572;2023-04-02T04:51:04;95819.75;;;6.81;100.00
65614;BME280;52283;49.292;10.572;2023-04-02T04:53:32;95829.34;;;6.80;100.00
65614;BME280;52283;49.292;10.572;2023-04-02T04:56:01;95831.88;;;6.84;100.00
65614;BME280;52283;49.292;10.572;2023-04-02T04:58:32;95832.78;;;7.01;100.00
65614;BME280;52283;49.292;10.572;2023-04-02T05:01:03;95835.75;;;6.92;100.00
65614;BME280;52283;49.292;10.572;2023-04-02T05:03:37;95843.72;;;6.79;100.00
65614;BME280;52283;49.292;10.572;2023-04-02T05:06:09;95844.94;;;6.72;100.00
65614;BME280;52283;49.292;10.572;2023-04-02T05:08:40;95847.88;;;6.94;100.00
65614;BME280;52283;49.292;10.572;2023-04-02T05:11:12;95846.47;;;6.73;100.00
65614;BME280;52283;49.292;10.572;2023-04-02T05:13:43;95848.97;;;6.71;100.00
65614;BME280;52283;49.292;10.572;2023-04-02T05:16:17;95850.78;;;6.80;100.00
65614;BME280;52283;49.292;10.572;2023-04-02T05:18:51;95850.00;;;6.73;100.00
65614;BME280;52283;49.292;10.572;2023-04-02T05:21:24;95850.00;;;6.73;100.00
65614;BME280;52283;49.292;10.572;2023-04-02T05:23:55;95855.09;;;6.81;100.00
65614;BME280;52283;49.292;10.572;2023-04-02T05:26:28;95862.13;;;6.76;100.00
65614;BME280;52283;49.292;10.572;2023-04-02T05:28:58;95857.59;;;6.79;100.00
65614;BME280;52283;49.292;10.572;2023-04-02T05:31:26;95860.38;;;6.79;100.00
65614;BME280;52283;49.292;10.572;2023-04-02T05:33:58;95869.47;;;6.79;100.00
65614;BME280;52283;49.292;10.572;2023-04-02T05:36:26;95869.75;;;6.81;100.00
65614;BME280;52283;49.292;10.572;2023-04-02T05:38:55;95883.13;;;6.83;100.00
65614;BME280;52283;49.292;10.572;2023-04-02T05:41:24;95878.06;;;6.81;100.00
65614;BME280;52283;49.292;10.572;2023-04-02T05:44:01;95881.06;;;6.78;100.00
65614;BME280;52283;49.292;10.572;2023-04-02T05:46:34;95878.41;;;6.89;100.00
65614;BME280;52283;49.292;10.572;2023-04-02T05:49:05;95892.09;;;6.98;100.00
65614;BME280;52283;49.292;10.572;2023-04-02T05:51:38;95891.31;;;6.92;100.00
65614;BME280;52283;49.292;10.572;2023-04-02T05:54:15;95882.22;;;6.91;100.00
65614;BME280;52283;49.292;10.572;2023-04-02T05:56:49;95898.47;;;7.04;100.00
65614;BME280;52283;49.292;10.572;2023-04-02T05:59:20;95890.94;;;7.10;100.00
65614;BME280;52283;49.292;10.572;2023-04-02T06:01:51;95902.91;;;6.90;100.00
65614;BME280;52283;49.292;10.572;2023-04-02T06:04:24;95916.88;;;7.01;100.00
65614;BME280;52283;49.292;10.572;2023-04-02T06:07:03;95918.94;;;7.07;100.00
65614;BME280;52283;49.292;10.572;2023-04-02T06:09:37;95921.72;;;7.07;100.00
65614;BME280;52283;49.292;10.572;2023-04-02T06:12:21;95919.66;;;7.01;100.00
65614;BME280;52283;49.292;10.572;2023-04-02T06:14:50;95917.97;;;7.10;100.00
65614;BME280;52283;49.292;10.572;2023-04-02T06:17:18;95928.63;;;7.17;100.00
65614;BME280;52283;49.292;10.572;2023-04-02T06:19:47;95928.78;;;7.08;100.00
65614;BME280;52283;49.292;10.572;2023-04-02T06:22:23;95932.88;;;7.12;100.00
65614;BME280;52283;49.292;10.572;2023-04-02T06:24:55;95939.75;;;7.17;100.00
65614;BME280;52283;49.292;10.572;2023-04-02T06:27:24;95936.44;;;7.13;100.00
65614;BME280;52283;49.292;10.572;2023-04-02T06:29:56;95938.56;;;7.29;100.00
65614;BME280;52283;49.292;10.572;2023-04-02T06:32:24;95946.34;;;7.25;100.00
65614;BME280;52283;49.292;10.572;2023-04-02T06:34:52;95958.78;;;7.29;100.00
65614;BME280;52283;49.292;10.572;2023-04-02T06:37:23;95957.97;;;7.23;100.00
65614;BME280;52283;49.292;10.572;2023-04-02T06:39:52;95954.84;;;7.10;100.00
65614;BME280;52283;49.292;10.572;2023-04-02T06:42:21;95969.78;;;7.13;100.00
65614;BME280;52283;49.292;10.572;2023-04-02T06:44:49;95961.78;;;7.26;100.00
65614;BME280;52283;49.292;10.572;2023-04-02T06:47:23;95976.81;;;7.40;100.00
65614;BME280;52283;49.292;10.572;2023-04-02T06:49:57;95973.22;;;7.33;100.00
65614;BME280;52283;49.292;10.572;2023-04-02T06:52:28;95979.06;;;7.36;100.00
65614;BME280;52283;49.292;10.572;2023-04-02T06:54:56;95985.34;;;7.68;100.00
65614;BME280;52283;49.292;10.572;2023-04-02T06:57:22;95981.78;;;7.67;100.00
65614;BME280;52283;49.292;10.572;2023-04-02T06:59:49;95993.34;;;7.54;100.00
65614;BME280;52283;49.292;10.572;2023-04-02T07:02:23;95999.91;;;7.51;100.00
65614;BME280;52283;49.292;10.572;2023-04-02T07:04:55;96002.03;;;7.68;100.00
65614;BME280;52283;49.292;10.572;2023-04-02T07:07:23;96004.28;;;7.63;100.00
65614;BME280;52283;49.292;10.572;2023-04-02T07:09:50;96018.28;;;7.80;100.00
65614;BME280;52283;49.292;10.572;2023-04-02T07:12:21;96016.91;;;7.64;100.00
65614;BME280;52283;49.292;10.572;2023-04-02T07:14:47;96018.69;;;7.68;100.00
65614;BME280;52283;49.292;10.572;2023-04-02T07:17:15;96014.00;;;7.48;100.00
65614;BME280;52283;49.292;10.572;2023-04-02T07:19:42;96016.34;;;7.55;100.00
65614;BME280;52283;49.292;10.572;2023-04-02T07:22:11;96022.47;;;7.64;100.00
65614;BME280;52283;49.292;10.572;2023-04-02T07:24:37;96026.38;;;7.78;100.00
65614;BME280;52283;49.292;10.572;2023-04-02T07:27:04;96038.91;;;7.62;100.00
65614;BME280;52283;49.292;10.572;2023-04-02T07:29:30;96040.84;;;7.51;100.00
65614;BME280;52283;49.292;10.572;2023-04-02T07:31:57;96041.28;;;7.44;100.00
65614;BME280;52283;49.292;10.572;2023-04-02T07:34:23;96033.38;;;7.68;100.00
65614;BME280;52283;49.292;10.572;2023-04-02T07:36:50;96042.13;;;7.55;100.00
65614;BME280;52283;49.292;10.572;2023-04-02T07:39:18;96038.66;;;7.66;100.00
65614;BME280;52283;49.292;10.572;2023-04-02T07:41:52;96050.91;;;7.80;100.00
65614;BME280;52283;49.292;10.572;2023-04-02T07:44:18;96053.44;;;7.78;100.00
65614;BME280;52283;49.292;10.572;2023-04-02T07:46:45;96059.25;;;7.80;100.00
65614;BME280;52283;49.292;10.572;2023-04-02T07:49:11;96054.66;;;7.71;100.00
65614;BME280;52283;49.292;10.572;2023-04-02T07:51:38;96064.22;;;7.70;100.00
65614;BME280;52283;49.292;10.572;2023-04-02T07:54:04;96060.66;;;7.64;100.00
65614;BME280;52283;49.292;10.572;2023-04-02T07:56:36;96064.19;;;7.64;100.00
65614;BME280;52283;49.292;10.572;2023-04-02T07:59:03;96068.94;;;7.58;100.00
65614;BME280;52283;49.292;10.572;2023-04-02T08:01:29;96060.59;;;7.58;100.00
65614;BME280;52283;49.292;10.572;2023-04-02T08:04:00;96065.94;;;7.62;100.00
65614;BME280;52283;49.292;10.572;2023-04-02T08:06:27;96063.53;;;7.75;100.00
65614;BME280;52283;49.292;10.572;2023-04-02T08:08:54;96079.38;;;7.69;100.00
65614;BME280;52283;49.292;10.572;2023-04-02T08:11:20;96074.88;;;7.72;100.00
65614;BME280;52283;49.292;10.572;2023-04-02T08:13:48;96072.53;;;7.64;100.00
65614;BME280;52283;49.292;10.572;2023-04-02T08:16:16;96082.81;;;7.84;100.00
65614;BME280;52283;49.292;10.572;2023-04-02T08:18:42;96076.16;;;7.71;100.00
65614;BME280;52283;49.292;10.572;2023-04-02T08:21:11;96088.41;;;7.58;100.00
65614;BME280;52283;49.292;10.572;2023-04-02T08:23:38;96092.41;;;7.52;100.00
65614;BME280;52283;49.292;10.572;2023-04-02T08:26:05;96090.47;;;7.63;100.00
65614;BME280;52283;49.292;10.572;2023-04-02T08:28:32;96101.75;;;7.80;100.00
65614;BME280;52283;49.292;10.572;2023-04-02T08:31:00;96096.56;;;7.68;100.00
65614;BME280;52283;49.292;10.572;2023-04-02T08:33:28;96101.88;;;7.65;100.00
65614;BME280;52283;49.292;10.572;2023-04-02T08:35:55;96107.13;;;7.58;100.00
65614;BME280;52283;49.292;10.572;2023-04-02T08:38:22;96100.78;;;7.57;100.00
65614;BME280;52283;49.292;10.572;2023-04-02T08:40:50;96108.09;;;7.55;100.00
65614;BME280;52283;49.292;10.572;2023-04-02T08:43:29;96114.59;;;7.46;100.00
65614;BME280;52283;49.292;10.572;2023-04-02T08:46:11;96111.59;;;7.50;100.00
65614;BME280;52283;49.292;10.572;2023-04-02T08:48:42;96113.25;;;7.68;100.00
65614;BME280;52283;49.292;10.572;2023-04-02T08:51:18;96122.16;;;7.46;100.00
65614;BME280;52283;49.292;10.572;2023-04-02T08:53:46;96114.94;;;7.54;100.00
65614;BME280;52283;49.292;10.572;2023-04-02T08:56:17;96117.78;;;7.65;100.00
65614;BME280;52283;49.292;10.572;2023-04-02T08:58:49;96125.47;;;7.76;100.00
65614;BME280;52283;49.292;10.572;2023-04-02T09:01:29;96123.34;;;7.65;100.00
65614;BME280;52283;49.292;10.572;2023-04-02T09:03:59;96127.16;;;7.68;100.00
65614;BME280;52283;49.292;10.572;2023-04-02T09:06:27;96132.84;;;7.79;100.00
65614;BME280;52283;49.292;10.572;2023-04-02T09:08:56;96132.31;;;7.75;100.00
65614;BME280;52283;49.292;10.572;2023-04-02T09:11:24;96128.94;;;7.97;100.00
65614;BME280;52283;49.292;10.572;2023-04-02T09:13:55;96132.53;;;8.03;100.00
65614;BME280;52283;49.292;10.572;2023-04-02T09:16:33;96133.59;;;7.79;100.00
65614;BME280;52283;49.292;10.572;2023-04-02T09:19:13;96142.97;;;7.82;100.00
65614;BME280;52283;49.292;10.572;2023-04-02T09:21:42;96143.09;;;7.93;100.00
65614;BME280;52283;49.292;10.572;2023-04-02T09:24:11;96165.50;;;7.84;100.00
65614;BME280;52283;49.292;10.572;2023-04-02T09:26:38;96169.28;;;7.55;100.00
65614;BME280;52283;49.292;10.572;2023-04-02T09:29:22;96183.22;;;7.60;100.00
65614;BME280;52283;49.292;10.572;2023-04-02T09:32:00;96185.03;;;7.63;100.00
65614;BME280;52283;49.292;10.572;2023-04-02T09:34:29;96187.09;;;7.43;100.00
65614;BME280;52283;49.292;10.572;2023-04-02T09:36:56;96201.47;;;7.41;100.00
65614;BME280;52283;49.292;10.572;2023-04-02T09:39:23;96205.41;;;7.29;100.00
65614;BME280;52283;49.292;10.572;2023-04-02T09:41:51;96207.03;;;7.41;100.00
65614;BME280;52283;49.292;10.572;2023-04-02T09:44:21;96213.59;;;7.64;100.00
65614;BME280;52283;49.292;10.572;2023-04-02T09:46:56;96215.88;;;7.65;100.00
65614;BME280;52283;49.292;10.572;2023-04-02T09:49:26;96215.31;;;7.36;100.00
65614;BME280;52283;49.292;10.572;2023-04-02T09:52:10;96223.00;;;7.46;100.00
65614;BME280;52283;49.292;10.572;2023-04-02T09:54:41;96228.84;;;7.28;100.00
65614;BME280;52283;49.292;10.572;2023-04-02T09:57:17;96242.34;;;7.55;100.00
65614;BME280;52283;49.292;10.572;2023-04-02T09:59:45;96240.25;;;7.50;100.00
65614;BME280;52283;49.292;10.572;2023-04-02T10:02:23;96240.81;;;7.54;100.00
65614;BME280;52283;49.292;10.572;2023-04-02T10:04:53;96252.66;;;7.29;100.00
65614;BME280;52283;49.292;10.572;2023-04-02T10:07:31;96257.50;;;7.14;100.00
65614;BME280;52283;49.292;10.572;2023-04-02T10:09:59;96264.16;;;7.01;100.00
65614;BME280;52283;49.292;10.572;2023-04-02T10:12:28;96262.16;;;7.22;100.00
65614;BME280;52283;49.292;10.572;2023-04-02T10:14:56;96265.84;;;7.14;100.00
65614;BME280;52283;49.292;10.572;2023-04-02T10:17:30;96272.22;;;7.40;100.00
65614;BME280;52283;49.292;10.572;2023-04-02T10:20:00;96268.53;;;7.49;100.00
65614;BME280;52283;49.292;10.572;2023-04-02T10:22:31;96277.56;;;7.23;100.00
65614;BME280;52283;49.292;10.572;2023-04-02T10:24:58;96282.16;;;7.26;100.00
65614;BME280;52283;49.292;10.572;2023-04-02T10:27:28;96280.78;;;7.16;100.00
65614;BME280;52283;49.292;10.572;2023-04-02T10:30:08;96294.38;;;7.14;100.00
65614;BME280;52283;49.292;10.572;2023-04-02T10:32:44;96294.31;;;7.09;100.00
65614;BME280;52283;49.292;10.572;2023-04-02T10:35:20;96294.72;;;7.01;100.00
65614;BME280;52283;49.292;10.572;2023-04-02T10:38:04;96307.78;;;6.81;100.00
65614;BME280;52283;49.292;10.572;2023-04-02T10:40:42;96316.34;;;7.12;100.00
65614;BME280;52283;49.292;10.572;2023-04-02T10:43:38;96316.56;;;7.09;100.00
65614;BME280;52283;49.292;10.572;2023-04-02T10:46:13;96327.75;;;6.99;100.00
65614;BME280;52283;49.292;10.572;2023-04-02T10:48:51;96336.59;;;6.98;100.00
65614;BME280;52283;49.292;10.572;2023-04-02T10:51:28;96340.19;;;7.04;100.00
65614;BME280;52283;49.292;10.572;2023-04-02T10:54:02;96346.09;;;6.91;100.00
65614;BME280;52283;49.292;10.572;2023-04-02T10:56:33;96340.34;;;6.80;100.00
65614;BME280;52283;49.292;10.572;2023-04-02T10:59:02;96341.78;;;6.90;100.00
65614;BME280;52283;49.292;10.572;2023-04-02T11:01:31;96346.19;;;6.82;100.00
65614;BME280;52283;49.292;10.572;2023-04-02T11:04:04;96348.31;;;6.87;100.00
65614;BME280;52283;49.292;10.572;2023-04-02T11:06:38;96346.59;;;6.60;100.00
65614;BME280;52283;49.292;10.572;2023-04-02T11:09:14;96355.59;;;6.40;100.00
65614;BME280;52283;49.292;10.572;2023-04-02T11:11:44;96354.56;;;6.53;100.00
65614;BME280;52283;49.292;10.572;2023-04-02T11:14:13;96363.72;;;6.59;100.00
65614;BME280;52283;49.292;10.572;2023-04-02T11:16:42;96371.28;;;6.88;100.00
65614;BME280;52283;49.292;10.572;2023-04-02T11:19:26;96368.59;;;6.79;100.00
65614;BME280;52283;49.292;10.572;2023-04-02T11:21:53;96380.31;;;6.53;100.00
65614;BME280;52283;49.292;10.572;2023-04-02T11:24:29;96379.22;;;6.36;100.00
65614;BME280;52283;49.292;10.572;2023-04-02T11:27:04;96387.28;;;6.49;100.00
65614;BME280;52283;49.292;10.572;2023-04-02T11:29:32;96403.28;;;6.54;100.00
65614;BME280;52283;49.292;10.572;2023-04-02T11:32:22;96398.66;;;6.36;100.00
65614;BME280;52283;49.292;10.572;2023-04-02T11:35:19;96404.34;;;6.56;100.00
65614;BME280;52283;49.292;10.572;2023-04-02T11:40:41;96420.13;;;6.50;100.00
65614;BME280;52283;49.292;10.572;2023-04-02T11:46:39;96436.47;;;6.33;100.00
65614;BME280;52283;49.292;10.572;2023-04-02T11:49:34;96445.75;;;6.30;100.00
65614;BME280;52283;49.292;10.572;2023-04-02T11:52:04;96437.31;;;6.25;100.00
65614;BME280;52283;49.292;10.572;2023-04-02T11:54:36;96440.72;;;6.20;100.00
65614;BME280;52283;49.292;10.572;2023-04-02T11:57:15;96451.88;;;6.34;100.00
65614;BME280;52283;49.292;10.572;2023-04-02T11:59:54;96452.75;;;6.40;100.00
65614;BME280;52283;49.292;10.572;2023-04-02T12:02:31;96457.47;;;6.49;100.00
65614;BME280;52283;49.292;10.572;2023-04-02T12:05:16;96461.88;;;6.56;100.00
65614;BME280;52283;49.292;10.572;2023-04-02T12:07:53;96464.28;;;6.78;100.00
65614;BME280;52283;49.292;10.572;2023-04-02T12:10:24;96467.16;;;6.98;100.00
65614;BME280;52283;49.292;10.572;2023-04-02T12:12:54;96470.22;;;7.00;100.00
65614;BME280;52283;49.292;10.572;2023-04-02T12:15:31;96479.59;;;7.02;100.00
65614;BME280;52283;49.292;10.572;2023-04-02T12:18:03;96482.75;;;6.66;100.00
65614;BME280;52283;49.292;10.572;2023-04-02T12:20:31;96484.59;;;6.69;100.00
65614;BME280;52283;49.292;10.572;2023-04-02T12:23:00;96479.06;;;6.45;100.00
65614;BME280;52283;49.292;10.572;2023-04-02T12:25:29;96489.09;;;6.66;100.00
65614;BME280;52283;49.292;10.572;2023-04-02T12:28:14;96481.78;;;6.54;100.00
65614;BME280;52283;49.292;10.572;2023-04-02T12:30:43;96488.69;;;6.59;100.00
65614;BME280;52283;49.292;10.572;2023-04-02T12:33:15;96493.75;;;6.46;100.00
65614;BME280;52283;49.292;10.572;2023-04-02T12:35:43;96504.19;;;6.51;100.00
65614;BME280;52283;49.292;10.572;2023-04-02T12:38:22;96507.34;;;6.58;100.00
65614;BME280;52283;49.292;10.572;2023-04-02T12:40:53;96504.13;;;6.36;100.00
65614;BME280;52283;49.292;10.572;2023-04-02T12:43:24;96513.88;;;6.31;100.00
65614;BME280;52283;49.292;10.572;2023-04-02T12:45:52;96509.38;;;6.34;100.00
65614;BME280;52283;49.292;10.572;2023-04-02T12:48:20;96507.22;;;6.14;100.00
65614;BME280;52283;49.292;10.572;2023-04-02T12:50:47;96512.06;;;6.28;100.00
65614;BME280;52283;49.292;10.572;2023-04-02T12:53:21;96511.78;;;6.41;100.00
65614;BME280;52283;49.292;10.572;2023-04-02T12:55:50;96521.03;;;6.47;100.00
65614;BME280;52283;49.292;10.572;2023-04-02T12:58:25;96527.91;;;6.52;100.00
65614;BME280;52283;49.292;10.572;2023-04-02T13:01:08;96523.31;;;6.01;100.00
65614;BME280;52283;49.292;10.572;2023-04-02T13:03:35;96529.72;;;6.16;100.00
65614;BME280;52283;49.292;10.572;2023-04-02T13:06:02;96528.47;;;5.93;100.00
65614;BME280;52283;49.292;10.572;2023-04-02T13:08:37;96529.34;;;6.23;100.00
65614;BME280;52283;49.292;10.572;2023-04-02T13:11:05;96533.63;;;6.09;100.00
65614;BME280;52283;49.292;10.572;2023-04-02T13:13:33;96531.13;;;6.35;100.00
65614;BME280;52283;49.292;10.572;2023-04-02T13:16:04;96535.28;;;6.55;100.00
65614;BME280;52283;49.292;10.572;2023-04-02T13:18:32;96542.13;;;6.06;100.00
65614;BME280;52283;49.292;10.572;2023-04-02T13:21:01;96537.34;;;6.30;100.00